Time;durP1;ratioP1;P1;durP2;ratioP2;P2;SDS_P1;SDS_P2;PMS_P1;PMS_P2;Temp;Humidity;BMP_temperature;BMP_pressure;BME280_temperature;BME280_humidity;BME280_pressure;Samples;Min_cycle;Max_cycle;Signal;HPM_P1;HPM_P2
2021/10/13 00:01:53;;;;;;;10.45;1.40;;;;;;;9.18;100.00;102519.78;5010851;28;20026;-75
2021/10/13 00:04:19;;;;;;;5.30;0.90;;;;;;;9.11;100.00;102514.25;5011931;28;20026;-75
2021/10/13 00:06:44;;;;;;;4.50;1.88;;;;;;;9.05;100.00;102521.81;5011552;28;20087;-76
2021/10/13 00:09:10;;;;;;;5.93;1.10;;;;;;;9.01;100.00;102517.22;5013145;28;20116;-75
2021/10/13 00:11:38;;;;;;;6.18;1.38;;;;;;;8.96;100.00;102513.47;5012376;28;20100;-74
2021/10/13 00:14:03;;;;;;;4.78;1.20;;;;;;;8.87;100.00;102507.75;5012830;28;20038;-74
2021/10/13 00:16:30;;;;;;;4.85;1.40;;;;;;;8.79;100.00;102504.75;5010172;28;20486;-75
2021/10/13 00:18:56;;;;;;;6.88;1.50;;;;;;;8.72;100.00;102498.31;5011160;28;20509;-75
2021/10/13 00:21:22;;;;;;;9.18;1.90;;;;;;;8.70;100.00;102505.19;5012329;28;20119;-75
2021/10/13 00:23:47;;;;;;;6.03;1.73;;;;;;;8.67;100.00;102504.09;5013308;28;20132;-74
2021/10/13 00:26:12;;;;;;;9.10;1.33;;;;;;;8.67;100.00;102509.34;5012724;28;20108;-74
2021/10/13 00:28:38;;;;;;;4.28;1.30;;;;;;;8.63;100.00;102516.19;5009708;28;20037;-74
2021/10/13 00:31:03;;;;;;;6.32;1.70;;;;;;;8.66;100.00;102524.22;5012538;28;20100;-74
2021/10/13 00:33:28;;;;;;;7.35;2.25;;;;;;;8.67;100.00;102525.09;5011698;28;20525;-74
2021/10/13 00:35:54;;;;;;;8.40;1.60;;;;;;;8.70;100.00;102525.28;5011421;28;20043;-74
2021/10/13 00:38:19;;;;;;;9.98;1.80;;;;;;;8.73;100.00;102523.69;5013158;28;20029;-74
2021/10/13 00:40:44;;;;;;;11.73;1.42;;;;;;;8.77;100.00;102514.25;5000484;28;20036;-74
2021/10/13 00:43:10;;;;;;;7.10;1.52;;;;;;;8.78;100.00;102514.34;5010336;28;20034;-74
2021/10/13 00:45:35;;;;;;;9.05;1.33;;;;;;;8.85;100.00;102504.16;5009276;28;20045;-74
2021/10/13 00:48:01;;;;;;;5.53;1.75;;;;;;;8.90;100.00;102523.69;5011172;28;20113;-74
2021/10/13 00:50:27;;;;;;;8.68;1.40;;;;;;;8.90;100.00;102521.06;5015504;28;20030;-74
2021/10/13 00:52:52;;;;;;;6.63;1.70;;;;;;;8.97;100.00;102524.84;5015853;28;20030;-74
2021/10/13 00:55:19;;;;;;;5.85;1.25;;;;;;;9.01;100.00;102522.47;5012072;28;20577;-74
2021/10/13 00:57:45;;;;;;;10.50;2.20;;;;;;;9.05;100.00;102532.31;5009958;28;20501;-74
2021/10/13 01:00:12;;;;;;;8.05;1.45;;;;;;;9.08;100.00;102539.44;5009612;28;20037;-75
2021/10/13 01:02:46;;;;;;;7.20;1.40;;;;;;;9.07;100.00;102535.91;5011233;28;20037;-74
2021/10/13 01:05:26;;;;;;;4.20;1.60;;;;;;;9.07;100.00;102532.38;5010921;28;20034;-74
2021/10/13 01:08:00;;;;;;;11.40;2.38;;;;;;;9.06;100.00;102534.13;5011141;28;20065;-75
2021/10/13 01:10:36;;;;;;;10.63;2.20;;;;;;;9.04;100.00;102533.13;5010607;28;20022;-74
2021/10/13 01:13:26;;;;;;;7.35;1.38;;;;;;;9.01;100.00;102521.59;5003110;28;20026;-74
2021/10/13 01:16:03;;;;;;;14.73;1.80;;;;;;;8.96;100.00;102525.72;5009524;28;20057;-74
2021/10/13 01:18:43;;;;;;;11.05;1.50;;;;;;;8.90;100.00;102523.69;5013926;28;20443;-73
2021/10/13 01:21:17;;;;;;;9.13;1.52;;;;;;;8.85;100.00;102519.91;5013111;28;20022;-74
2021/10/13 01:24:08;;;;;;;;;;;;;;;8.77;100.00;102515.16;5016376;28;20416;-73
2021/10/13 01:26:46;;;;;;;5.20;1.67;;;;;;;8.72;100.00;102507.88;5014079;28;19939;-74
2021/10/13 01:29:15;;;;;;;12.82;1.55;;;;;;;8.70;100.00;102509.53;5009210;28;20022;-74
2021/10/13 01:31:45;;;;;;;8.55;1.50;;;;;;;8.63;100.00;102517.91;5014521;28;20105;-74
2021/10/13 01:34:18;;;;;;;13.80;1.52;;;;;;;8.60;100.00;102519.56;5014613;28;20045;-73
2021/10/13 01:36:48;;;;;;;8.37;1.63;;;;;;;8.64;100.00;102519.72;5013947;28;20380;-74
2021/10/13 01:39:14;;;;;;;9.70;1.90;;;;;;;8.66;100.00;102529.47;5015588;28;20026;-74
2021/10/13 01:41:43;;;;;;;8.80;1.70;;;;;;;8.70;100.00;102528.78;5013982;28;20385;-74
2021/10/13 01:44:12;;;;;;;6.60;1.50;;;;;;;8.76;100.00;102529.13;5016032;28;20033;-74
2021/10/13 01:46:39;;;;;;;7.65;1.75;;;;;;;8.81;100.00;102528.47;5011206;28;20037;-74
2021/10/13 01:49:06;;;;;;;8.35;1.55;;;;;;;8.84;100.00;102534.75;5013665;28;20037;-74
2021/10/13 01:51:33;;;;;;;8.70;1.90;;;;;;;8.90;100.00;102536.81;5013174;28;20065;-74
2021/10/13 01:54:04;;;;;;;8.57;1.50;;;;;;;8.95;100.00;102537.91;5018792;28;20069;-73
2021/10/13 01:56:31;;;;;;;7.07;1.67;;;;;;;8.98;100.00;102539.78;5014283;28;20049;-74
2021/10/13 01:59:01;;;;;;;10.07;1.48;;;;;;;9.02;100.00;102531.25;5012906;28;20044;-74
2021/10/13 02:01:31;;;;;;;9.48;1.67;;;;;;;9.04;100.00;102533.13;5010118;28;20034;-74
2021/10/13 02:04:01;;;;;;;5.40;1.65;;;;;;;9.06;100.00;102536.75;5012921;28;20393;-74
2021/10/13 02:06:29;;;;;;;8.32;1.77;;;;;;;9.09;100.00;102544.78;5014437;28;20069;-74
2021/10/13 02:08:56;;;;;;;9.98;2.17;;;;;;;9.11;100.00;102539.59;5013984;28;20418;-74
2021/10/13 02:11:28;;;;;;;8.82;2.20;;;;;;;9.15;100.00;102540.66;5013418;28;20489;-73
2021/10/13 02:14:07;;;;;;;9.48;2.15;;;;;;;9.15;100.00;102538.91;5014271;28;20064;-74
2021/10/13 02:16:33;;;;;;;10.77;2.58;;;;;;;9.17;100.00;102539.00;5012668;28;20046;-74
2021/10/13 02:19:03;;;;;;;7.13;2.00;;;;;;;9.18;100.00;102543.44;5013873;28;20022;-74
2021/10/13 02:21:30;;;;;;;7.18;2.30;;;;;;;9.21;100.00;102551.44;5027782;28;20029;-74
2021/10/13 02:23:58;;;;;;;8.15;2.22;;;;;;;9.25;100.00;102563.91;5015385;28;20042;-74
2021/10/13 02:26:30;;;;;;;5.85;2.00;;;;;;;9.24;100.00;102573.53;5012266;28;20056;-74
2021/10/13 02:29:01;;;;;;;4.93;2.17;;;;;;;9.26;100.00;102570.97;5014402;28;20025;-73
2021/10/13 02:31:27;;;;;;;6.40;1.88;;;;;;;9.28;100.00;102569.34;5004438;28;20026;-73
2021/10/13 02:33:53;;;;;;;9.32;1.77;;;;;;;9.26;100.00;102557.84;5013460;28;20040;-73
2021/10/13 02:36:18;;;;;;;9.38;2.33;;;;;;;9.27;100.00;102562.28;5013551;28;20026;-73
2021/10/13 02:38:44;;;;;;;9.02;2.20;;;;;;;9.24;100.00;102563.03;5012648;28;20022;-74
2021/10/13 02:41:09;;;;;;;5.35;2.15;;;;;;;9.26;100.00;102566.63;5011843;28;20064;-74
2021/10/13 02:43:35;;;;;;;6.10;1.70;;;;;;;9.19;100.00;102558.38;5015736;28;20022;-74
2021/10/13 02:46:13;;;;;;;5.78;1.60;;;;;;;9.14;100.00;102557.22;5012958;28;20026;-74
2021/10/13 02:48:42;;;;;;;6.15;1.52;;;;;;;9.09;100.00;102564.91;5014463;28;20543;-74
2021/10/13 02:51:17;;;;;;;9.57;1.55;;;;;;;9.03;100.00;102556.69;5012851;28;20534;-74
2021/10/13 02:54:01;;;;;;;10.65;1.63;;;;;;;9.00;100.00;102554.81;5021237;28;20474;-74
2021/10/13 02:56:38;;;;;;;5.75;1.67;;;;;;;8.99;100.00;102552.09;5003591;28;20033;-74
2021/10/13 02:59:07;;;;;;;8.20;1.45;;;;;;;8.97;100.00;102556.38;5012149;28;20033;-73
2021/10/13 03:01:38;;;;;;;8.90;2.15;;;;;;;8.95;100.00;102558.91;5009753;28;20050;-73
2021/10/13 03:04:07;;;;;;;5.45;1.70;;;;;;;8.95;100.00;102561.53;5012077;28;20033;-74
2021/10/13 03:06:43;;;;;;;5.68;1.90;;;;;;;8.91;100.00;102570.09;5012950;28;20057;-73
2021/10/13 03:09:09;;;;;;;8.75;1.92;;;;;;;8.86;100.00;102569.88;5013467;28;20064;-73
2021/10/13 03:11:37;;;;;;;8.30;1.42;;;;;;;8.85;100.00;102573.31;5013378;28;20026;-73
2021/10/13 03:14:05;;;;;;;4.30;1.40;;;;;;;8.78;100.00;102568.56;5012382;28;20124;-73
2021/10/13 03:16:31;;;;;;;10.85;1.98;;;;;;;8.75;100.00;102577.19;5011654;28;20482;-74
2021/10/13 03:18:58;;;;;;;7.30;2.40;;;;;;;8.80;100.00;102579.16;5010568;28;20052;-74
2021/10/13 03:21:26;;;;;;;3.10;1.23;;;;;;;8.71;100.00;102590.09;5014378;28;20401;-74
2021/10/13 03:23:52;;;;;;;5.35;1.40;;;;;;;8.71;100.00;102593.59;5012869;28;20041;-73
2021/10/13 03:26:17;;;;;;;8.52;1.55;;;;;;;8.71;100.00;102595.34;5011900;28;20592;-73
2021/10/13 03:28:42;;;;;;;3.05;1.42;;;;;;;8.73;100.00;102593.66;5013987;28;20608;-73
2021/10/13 03:31:08;;;;;;;6.28;1.67;;;;;;;8.80;100.00;102605.41;5013487;28;20488;-74
2021/10/13 03:33:36;;;;;;;4.72;1.50;;;;;;;8.82;100.00;102608.97;5010595;28;20041;-74
2021/10/13 03:36:02;;;;;;;6.55;1.75;;;;;;;8.82;100.00;102607.28;5021984;28;20026;-74
2021/10/13 03:38:27;;;;;;;7.65;1.75;;;;;;;8.85;100.00;102596.94;5013397;28;20022;-74
2021/10/13 03:40:53;;;;;;;9.40;1.73;;;;;;;8.87;100.00;102597.94;5012098;28;20440;-74
2021/10/13 03:43:18;;;;;;;5.57;1.90;;;;;;;8.88;100.00;102602.34;5013613;28;20064;-74
2021/10/13 03:45:44;;;;;;;11.52;2.20;;;;;;;8.90;100.00;102607.69;5013245;28;20033;-74
2021/10/13 03:48:10;;;;;;;7.88;1.90;;;;;;;8.92;100.00;102600.78;5010424;28;20056;-74
2021/10/13 03:50:35;;;;;;;6.13;1.70;;;;;;;8.97;100.00;102599.28;5012645;28;20041;-74
2021/10/13 03:53:00;;;;;;;7.32;1.90;;;;;;;8.98;100.00;102600.19;5012973;28;20365;-72
2021/10/13 03:55:26;;;;;;;4.60;1.33;;;;;;;8.98;100.00;102606.34;5012884;28;20041;-74
2021/10/13 03:57:51;;;;;;;7.32;2.58;;;;;;;8.98;100.00;102590.59;5013522;28;20104;-74
2021/10/13 04:00:21;;;;;;;3.95;1.75;;;;;;;9.00;100.00;102591.56;5011900;28;20029;-74
2021/10/13 04:02:47;;;;;;;11.38;2.28;;;;;;;9.00;100.00;102588.94;5011560;28;20456;-74
2021/10/13 04:05:13;;;;;;;4.70;1.60;;;;;;;9.02;100.00;102597.81;5007382;28;20034;-75
2021/10/13 04:07:39;;;;;;;6.13;1.98;;;;;;;9.01;100.00;102589.88;5012647;28;20057;-75
2021/10/13 04:10:07;;;;;;;6.82;1.73;;;;;;;9.01;100.00;102580.25;5011378;28;20064;-74
2021/10/13 04:12:34;;;;;;;7.45;2.00;;;;;;;9.03;100.00;102573.34;5011767;28;20034;-74
2021/10/13 04:14:59;;;;;;;5.68;1.83;;;;;;;9.03;100.00;102573.34;5011803;28;20046;-73
2021/10/13 04:17:25;;;;;;;6.70;2.35;;;;;;;8.98;100.00;102576.56;5013344;28;20366;-75
2021/10/13 04:19:50;;;;;;;5.72;1.70;;;;;;;8.96;100.00;102578.22;5010208;28;20141;-75
2021/10/13 04:22:16;;;;;;;4.35;1.80;;;;;;;8.85;100.00;102582.91;5013243;28;20537;-75
2021/10/13 04:24:41;;;;;;;8.40;1.85;;;;;;;8.84;100.00;102582.00;5011173;28;20121;-75
2021/10/13 04:27:07;;;;;;;6.63;1.67;;;;;;;8.80;100.00;102584.41;5007901;28;20090;-75
2021/10/13 04:29:32;;;;;;;6.30;2.25;;;;;;;8.75;100.00;102584.16;5008965;28;20064;-73
2021/10/13 04:31:57;;;;;;;5.43;1.50;;;;;;;8.70;100.00;102591.78;5011593;28;20033;-73
2021/10/13 04:34:23;;;;;;;8.10;2.50;;;;;;;8.72;100.00;102587.53;5012556;28;20030;-74
2021/10/13 04:36:48;;;;;;;2.92;1.70;;;;;;;8.72;100.00;102592.78;5011547;28;20041;-73
2021/10/13 04:39:13;;;;;;;6.43;2.10;;;;;;;8.72;100.00;102587.53;5010817;28;20057;-74
2021/10/13 04:41:39;;;;;;;4.07;1.58;;;;;;;8.75;100.00;102589.41;5010472;28;20030;-74
2021/10/13 04:44:04;;;;;;;6.38;1.85;;;;;;;8.79;100.00;102588.75;5011601;28;20045;-74
2021/10/13 04:46:30;;;;;;;5.32;2.60;;;;;;;8.80;100.00;102587.03;5009267;28;20474;-74
2021/10/13 04:48:55;;;;;;;6.65;2.53;;;;;;;8.74;100.00;102585.88;5010108;28;20390;-74
2021/10/13 04:51:20;;;;;;;11.27;3.40;;;;;;;8.70;100.00;102586.53;5013706;28;20033;-73
2021/10/13 04:53:46;;;;;;;7.50;2.20;;;;;;;8.65;100.00;102585.38;5023017;28;20493;-73
2021/10/13 04:56:11;;;;;;;9.13;2.40;;;;;;;8.58;100.00;102586.78;5013971;28;20081;-73
2021/10/13 04:58:36;;;;;;;8.98;2.30;;;;;;;8.59;100.00;102585.09;5014907;28;20429;-73
2021/10/13 05:01:02;;;;;;;4.38;2.10;;;;;;;8.56;100.00;102582.28;5013296;28;20576;-75
2021/10/13 05:03:28;;;;;;;7.05;2.50;;;;;;;8.58;100.00;102585.91;5014811;28;20021;-75
2021/10/13 05:05:53;;;;;;;18.20;5.00;;;;;;;8.59;100.00;102595.56;5014981;28;20040;-75
2021/10/13 05:08:19;;;;;;;9.55;3.20;;;;;;;8.61;100.00;102588.66;5012714;28;20033;-73
2021/10/13 05:10:44;;;;;;;15.52;3.55;;;;;;;8.64;100.00;102586.22;5013202;28;20489;-74
2021/10/13 05:13:09;;;;;;;7.80;3.10;;;;;;;8.66;100.00;102589.81;5015246;28;20026;-74
2021/10/13 05:15:35;;;;;;;7.03;3.30;;;;;;;8.69;100.00;102589.97;5014839;28;20125;-73
2021/10/13 05:18:00;;;;;;;9.00;3.00;;;;;;;8.72;100.00;102592.78;5013583;28;20025;-73
2021/10/13 05:20:26;;;;;;;5.78;2.70;;;;;;;8.74;100.00;102596.38;5012815;28;20045;-73
2021/10/13 05:22:51;;;;;;;10.13;2.90;;;;;;;8.77;100.00;102591.28;5014864;28;20046;-73
2021/10/13 05:25:17;;;;;;;9.77;2.88;;;;;;;8.80;100.00;102601.03;5015985;28;20033;-73
2021/10/13 05:27:42;;;;;;;7.65;2.55;;;;;;;8.82;100.00;102608.97;5014877;28;20120;-73
2021/10/13 05:30:08;;;;;;;13.30;2.55;;;;;;;8.86;100.00;102606.63;5016143;28;20034;-73
2021/10/13 05:32:34;;;;;;;13.35;3.15;;;;;;;8.90;100.00;102611.22;5016835;28;20060;-73
2021/10/13 05:34:59;;;;;;;8.77;2.88;;;;;;;8.93;100.00;102606.09;5016056;28;20478;-74
2021/10/13 05:37:24;;;;;;;14.38;3.15;;;;;;;8.97;100.00;102612.44;5014839;28;20030;-74
2021/10/13 05:39:50;;;;;;;9.27;2.40;;;;;;;9.03;100.00;102614.47;5014818;28;20041;-75
2021/10/13 05:42:15;;;;;;;11.68;2.78;;;;;;;9.05;100.00;102605.84;5015376;28;20386;-75
2021/10/13 05:44:41;;;;;;;8.02;3.05;;;;;;;9.06;100.00;102615.53;5029865;28;20378;-73
2021/10/13 05:47:06;;;;;;;14.13;3.28;;;;;;;9.04;100.00;102617.16;5016660;28;20064;-74
2021/10/13 05:49:32;;;;;;;8.43;2.60;;;;;;;9.05;100.00;102612.84;5015320;28;20482;-72
2021/10/13 05:51:57;;;;;;;13.90;2.65;;;;;;;9.04;100.00;102611.91;5015588;28;20092;-74
2021/10/13 05:54:23;;;;;;;6.32;2.10;;;;;;;9.06;100.00;102617.22;5015984;28;20391;-74
2021/10/13 05:56:50;;;;;;;7.82;2.40;;;;;;;9.07;100.00;102626.94;5031171;28;20033;-74
2021/10/13 05:59:16;;;;;;;10.55;2.95;;;;;;;9.09;100.00;102620.94;5014081;28;20080;-75
2021/10/13 06:01:41;;;;;;;10.30;2.67;;;;;;;9.08;100.00;102619.13;5015430;28;20030;-73
2021/10/13 06:04:07;;;;;;;10.90;2.83;;;;;;;9.09;100.00;102626.19;5015031;28;20090;-70
2021/10/13 06:06:32;;;;;;;11.40;3.22;;;;;;;9.11;100.00;102629.81;5016122;28;20030;-74
2021/10/13 06:08:57;;;;;;;11.30;3.22;;;;;;;9.11;100.00;102635.06;5015180;28;20030;-73
2021/10/13 06:11:23;;;;;;;12.48;2.45;;;;;;;9.14;100.00;102625.50;5015833;28;20025;-73
2021/10/13 06:13:48;;;;;;;14.05;2.72;;;;;;;9.14;100.00;102633.41;5015794;28;20132;-73
2021/10/13 06:16:14;;;;;;;10.25;2.40;;;;;;;9.15;100.00;102633.47;5014513;28;20338;-73
2021/10/13 06:18:39;;;;;;;12.77;3.20;;;;;;;9.16;100.00;102637.03;5015098;28;20476;-72
2021/10/13 06:21:05;;;;;;;17.83;4.80;;;;;;;9.17;100.00;102638.78;5014604;28;20045;-73
2021/10/13 06:23:31;;;;;;;8.38;3.05;;;;;;;9.16;100.00;102642.28;5012714;28;20042;-73
2021/10/13 06:25:56;;;;;;;11.02;3.20;;;;;;;9.13;100.00;102643.00;5015459;28;20032;-73
2021/10/13 06:28:22;;;;;;;10.52;2.70;;;;;;;9.09;100.00;102647.19;5015791;28;20048;-74
2021/10/13 06:30:47;;;;;;;21.25;8.60;;;;;;;9.05;100.00;102650.47;5013084;28;20054;-74
2021/10/13 06:33:12;;;;;;;14.45;2.95;;;;;;;9.03;100.00;102648.59;5015365;28;20091;-74
2021/10/13 06:35:38;;;;;;;15.98;3.08;;;;;;;9.03;100.00;102651.22;5014881;28;20033;-74
2021/10/13 06:38:04;;;;;;;9.05;3.55;;;;;;;9.03;100.00;102652.13;5014585;28;20026;-74
2021/10/13 06:40:29;;;;;;;9.73;2.83;;;;;;;9.00;100.00;102654.59;5000445;28;20505;-74
2021/10/13 06:42:54;;;;;;;12.45;2.78;;;;;;;9.01;100.00;102652.88;5015035;28;20040;-73
2021/10/13 06:45:20;;;;;;;6.00;2.50;;;;;;;9.03;100.00;102661.72;5015363;28;20042;-74
2021/10/13 06:47:45;;;;;;;8.05;2.63;;;;;;;9.04;100.00;102656.56;5015208;28;20040;-72
2021/10/13 06:50:11;;;;;;;12.00;3.17;;;;;;;9.07;100.00;102664.56;5014736;28;20450;-73
2021/10/13 06:52:39;;;;;;;7.78;2.78;;;;;;;9.12;100.00;102664.84;5012470;28;20034;-73
2021/10/13 06:55:06;;;;;;;8.48;3.35;;;;;;;9.19;100.00;102673.94;5012687;28;20026;-73
2021/10/13 06:57:32;;;;;;;11.57;3.30;;;;;;;9.24;100.00;102672.47;5012808;28;20025;-73
2021/10/13 06:59:57;;;;;;;6.68;2.58;;;;;;;9.34;100.00;102672.09;5012828;28;20545;-73
2021/10/13 07:02:22;;;;;;;6.90;3.13;;;;;;;9.41;100.00;102666.34;5012483;28;20037;-73
2021/10/13 07:04:48;;;;;;;10.70;3.15;;;;;;;9.51;100.00;102669.41;5013871;28;20429;-73
2021/10/13 07:07:13;;;;;;;9.88;2.80;;;;;;;9.58;100.00;102668.91;5012155;28;20065;-73
2021/10/13 07:09:39;;;;;;;7.85;2.97;;;;;;;9.65;100.00;102671.00;5016985;28;20359;-73
2021/10/13 07:12:04;;;;;;;8.15;3.03;;;;;;;9.73;100.00;102674.91;5011216;28;20072;-72
2021/10/13 07:14:30;;;;;;;14.15;2.88;;;;;;;9.79;100.00;102672.59;5019048;28;20080;-73
2021/10/13 07:16:55;;;;;;;13.82;3.60;;;;;;;9.87;100.00;102678.22;5015777;28;20036;-72
2021/10/13 07:19:20;;;;;;;10.35;2.95;;;;;;;9.93;100.00;102685.53;5014193;28;20381;-74
2021/10/13 07:21:46;;;;;;;8.55;2.92;;;;;;;9.99;100.00;102683.19;5016454;28;20528;-73
2021/10/13 07:24:11;;;;;;;11.75;3.03;;;;;;;10.04;100.00;102681.69;5012702;28;20552;-74
2021/10/13 07:26:39;;;;;;;14.38;3.10;;;;;;;10.10;100.00;102675.81;5013870;28;20026;-72
2021/10/13 07:29:04;;;;;;;10.90;2.67;;;;;;;10.15;100.00;102689.19;5014173;28;20022;-73
2021/10/13 07:31:30;;;;;;;11.50;3.42;;;;;;;10.20;100.00;102680.69;5013888;28;20060;-73
2021/10/13 07:33:56;;;;;;;6.03;2.22;;;;;;;10.22;100.00;102684.28;5010382;28;20029;-73
2021/10/13 07:36:22;;;;;;;7.78;2.60;;;;;;;10.27;100.00;102684.53;5013369;28;20026;-73
2021/10/13 07:38:47;;;;;;;10.27;1.80;;;;;;;10.30;100.00;102679.41;5013544;28;20105;-73
2021/10/13 07:41:15;;;;;;;9.82;3.03;;;;;;;10.34;100.00;102676.09;5012223;28;20068;-73
2021/10/13 07:43:40;;;;;;;10.45;3.00;;;;;;;10.35;100.00;102672.66;5014386;28;20029;-73
2021/10/13 07:46:05;;;;;;;4.75;1.60;;;;;;;10.34;100.00;102676.09;5014210;28;20030;-74
2021/10/13 07:48:31;;;;;;;5.32;1.60;;;;;;;10.35;100.00;102672.66;5013644;28;20548;-73
2021/10/13 07:50:56;;;;;;;14.77;2.42;;;;;;;10.38;100.00;102677.19;5013632;28;20022;-74
2021/10/13 07:53:23;;;;;;;6.97;2.05;;;;;;;10.39;100.00;102678.94;5009960;28;20030;-73
2021/10/13 07:55:49;;;;;;;6.68;1.67;;;;;;;10.43;100.00;102676.56;5005817;28;20382;-72
2021/10/13 07:58:14;;;;;;;11.63;2.33;;;;;;;10.48;100.00;102676.75;5012830;28;20029;-72
2021/10/13 08:00:40;;;;;;;6.55;1.73;;;;;;;10.53;100.00;102687.50;5013882;28;20069;-74
2021/10/13 08:03:05;;;;;;;6.22;1.73;;;;;;;10.60;100.00;102685.22;5012861;28;20026;-74
2021/10/13 08:05:30;;;;;;;7.72;1.65;;;;;;;10.70;100.00;102685.66;5011034;28;20033;-72
2021/10/13 08:07:56;;;;;;;5.15;1.67;;;;;;;10.80;100.00;102691.41;5012369;28;20088;-72
2021/10/13 08:10:22;;;;;;;6.43;1.33;;;;;;;10.88;100.00;102690.84;5012371;28;20075;-73
2021/10/13 08:12:48;;;;;;;3.55;1.23;;;;;;;10.90;100.00;102687.44;5012202;28;20022;-71
2021/10/13 08:15:13;;;;;;;4.30;1.08;;;;;;;10.92;100.00;102693.69;5012315;28;20446;-73
2021/10/13 08:17:39;;;;;;;5.97;1.05;;;;;;;10.95;100.00;102703.47;5010958;28;20021;-71
2021/10/13 08:20:07;;;;;;;4.90;1.70;;;;;;;10.99;100.00;102704.50;5013784;28;20056;-72
2021/10/13 08:22:33;;;;;;;7.72;1.27;;;;;;;11.01;100.00;102709.00;5011547;28;20045;-72
2021/10/13 08:24:59;;;;;;;3.33;1.38;;;;;;;10.99;100.00;102715.03;5008900;28;20022;-72
2021/10/13 08:27:24;;;;;;;5.80;1.25;;;;;;;11.00;100.00;102715.13;5010865;28;20030;-72
2021/10/13 08:29:49;;;;;;;5.63;1.48;;;;;;;11.00;100.00;102715.13;5012182;28;20068;-73
2021/10/13 08:32:15;;;;;;;6.57;1.30;;;;;;;11.04;100.00;102718.78;5011631;28;20026;-72
2021/10/13 08:34:40;;;;;;;5.18;1.10;;;;;;;11.05;100.00;102718.84;5018965;28;20034;-72
2021/10/13 08:37:06;;;;;;;5.70;1.33;;;;;;;11.07;100.00;102718.91;5011298;28;20067;-72
2021/10/13 08:39:32;;;;;;;7.00;1.42;;;;;;;11.11;100.00;102727.03;5010599;28;20022;-72
2021/10/13 08:41:58;;;;;;;5.32;1.45;;;;;;;11.13;100.00;102720.06;5012039;28;20497;-72
2021/10/13 08:44:23;;;;;;;3.72;0.98;;;;;;;11.19;100.00;102716.84;5011131;28;20038;-71
2021/10/13 08:46:49;;;;;;;10.85;1.30;;;;;;;11.28;100.00;102714.59;5012237;28;20069;-72
2021/10/13 08:49:14;;;;;;;3.88;1.00;;;;;;;11.34;100.00;102713.97;5012158;28;20025;-72
2021/10/13 08:51:40;;;;;;;4.03;0.90;;;;;;;11.40;100.00;102719.50;5013311;28;20403;-72
2021/10/13 08:54:06;;;;;;;7.00;0.90;;;;;;;11.47;100.00;102726.81;5016072;28;20034;-72
2021/10/13 08:56:32;;;;;;;7.35;1.65;;;;;;;11.50;100.00;102728.69;5013189;28;20100;-73
2021/10/13 08:58:58;;;;;;;5.88;1.10;;;;;;;11.53;100.00;102726.22;5011741;28;20085;-72
2021/10/13 09:01:24;;;;;;;5.75;1.30;;;;;;;11.58;100.00;102722.00;5011877;28;20069;-73
2021/10/13 09:04:00;;;;;;;6.28;1.40;;;;;;;11.59;99.24;102718.56;5013184;28;20030;-73
2021/10/13 09:06:28;;;;;;;5.57;1.30;;;;;;;11.63;98.30;102717.84;5013163;28;20037;-73
2021/10/13 09:09:07;;;;;;;5.78;0.98;;;;;;;11.67;98.23;102729.44;5011515;28;20034;-72
2021/10/13 09:11:39;;;;;;;2.45;0.75;;;;;;;11.66;97.37;102725.00;5011618;28;20030;-72
2021/10/13 09:14:19;;;;;;;5.55;1.30;;;;;;;11.65;97.20;102725.81;5010401;28;20026;-73
2021/10/13 09:17:03;;;;;;;4.28;1.20;;;;;;;11.63;96.99;102722.22;5012443;28;20041;-72
2021/10/13 09:19:34;;;;;;;8.43;1.17;;;;;;;11.66;95.97;102727.63;5012050;28;20412;-72
2021/10/13 09:22:02;;;;;;;4.00;0.95;;;;;;;11.69;96.13;102722.47;5012887;28;20141;-73
2021/10/13 09:24:30;;;;;;;8.35;1.30;;;;;;;11.76;96.52;102729.81;5012808;28;20505;-73
2021/10/13 09:26:57;;;;;;;6.28;1.05;;;;;;;11.84;96.40;102722.22;5009508;28;20033;-74
2021/10/13 09:29:24;;;;;;;3.50;1.15;;;;;;;11.90;96.70;102724.22;5012435;28;20037;-72
2021/10/13 09:31:57;;;;;;;5.80;1.23;;;;;;;11.94;97.58;102723.53;5012767;28;20125;-72
2021/10/13 09:34:23;;;;;;;3.63;1.05;;;;;;;12.01;97.89;102724.72;5010869;28;20030;-72
2021/10/13 09:36:58;;;;;;;11.40;1.65;;;;;;;12.32;95.83;102727.72;5011457;28;20025;-72
2021/10/13 09:39:25;;;;;;;5.25;1.02;;;;;;;12.64;93.19;102721.91;5016282;28;20083;-73
2021/10/13 09:42:11;;;;;;;5.53;0.90;;;;;;;12.91;91.09;102734.34;5002502;28;20042;-73
2021/10/13 09:44:53;;;;;;;3.92;1.10;;;;;;;12.99;87.23;102722.31;5010258;28;20025;-73
2021/10/13 09:47:18;;;;;;;9.43;1.15;;;;;;;12.95;87.29;102731.91;5014578;28;20398;-73
2021/10/13 09:49:48;;;;;;;5.40;1.50;;;;;;;12.86;87.46;102738.56;5014686;28;20030;-72
2021/10/13 09:52:24;;;;;;;7.57;1.20;;;;;;;12.75;90.71;102744.34;5015054;28;20107;-71
2021/10/13 09:55:03;;;;;;;8.48;0.75;;;;;;;12.62;89.03;102742.97;5033685;28;20075;-72
2021/10/13 09:57:33;;;;;;;7.25;1.08;;;;;;;12.52;88.04;102735.56;5013413;28;20030;-73
2021/10/13 10:00:31;;;;;;;6.55;1.02;;;;;;;12.43;87.79;102740.47;5046227;28;20489;-75
2021/10/13 10:02:58;;;;;;;6.68;1.10;;;;;;;12.52;89.74;102740.84;5034695;28;20051;-74
2021/10/13 10:05:32;;;;;;;7.07;1.27;;;;;;;12.80;88.22;102736.59;5026613;28;20036;-74
2021/10/13 10:08:02;;;;;;;6.10;1.30;;;;;;;13.30;88.31;102740.19;5015787;28;20040;-74
2021/10/13 10:10:28;;;;;;;9.75;1.38;;;;;;;13.52;84.78;102729.53;5015575;28;20092;-74
2021/10/13 10:12:58;;;;;;;6.18;1.10;;;;;;;13.59;83.27;102731.53;5013748;28;20042;-74
2021/10/13 10:15:29;;;;;;;6.28;1.20;;;;;;;13.54;83.21;102727.81;5014225;28;20053;-73
2021/10/13 10:17:54;;;;;;;5.15;1.02;;;;;;;13.51;85.16;102733.00;5012134;28;20034;-73
2021/10/13 10:20:38;;;;;;;5.68;1.02;;;;;;;13.62;84.14;102739.59;5015413;28;20088;-74
2021/10/13 10:23:26;;;;;;;5.63;0.98;;;;;;;13.73;83.30;102742.59;5012815;28;20054;-74
2021/10/13 10:25:52;;;;;;;4.65;0.80;;;;;;;13.79;83.00;102738.38;5013472;28;20082;-74
2021/10/13 10:28:52;;;;;;;3.58;0.70;;;;;;;13.88;82.87;102734.28;5014312;28;20040;-74
2021/10/13 10:31:34;;;;;;;7.72;1.23;;;;;;;13.90;82.45;102727.28;5008855;28;20026;-74
2021/10/13 10:34:03;;;;;;;2.67;0.80;;;;;;;13.82;77.74;102714.69;5013614;28;20030;-74
2021/10/13 10:36:34;;;;;;;3.85;0.60;;;;;;;14.05;75.88;102719.81;5011025;28;20041;-74
2021/10/13 10:39:04;;;;;;;4.97;0.52;;;;;;;14.81;77.42;102728.41;5016668;28;20076;-74
2021/10/13 10:41:49;;;;;;;8.02;0.90;;;;;;;15.83;70.79;102709.06;5021268;28;20014;-75
2021/10/13 10:44:26;;;;;;;8.98;1.33;;;;;;;16.64;67.11;102709.09;5025730;28;20135;-74
2021/10/13 10:46:59;;;;;;;4.95;0.80;;;;;;;17.42;68.13;102725.78;5021039;28;20025;-73
2021/10/13 10:49:43;;;;;;;4.70;0.88;;;;;;;18.07;66.05;102721.56;5033522;28;20033;-75
2021/10/13 10:52:09;;;;;;;5.93;0.98;;;;;;;18.00;61.73;102698.34;5009407;28;20124;-74
2021/10/13 10:54:34;;;;;;;3.60;0.95;;;;;;;17.59;62.00;102706.53;5022632;28;20033;-74
2021/10/13 10:57:00;;;;;;;5.15;1.27;;;;;;;17.17;62.32;102704.03;5021234;28;20033;-77
2021/10/13 10:59:38;;;;;;;4.90;1.10;;;;;;;16.85;61.08;102701.59;5011346;28;20030;-76
2021/10/13 11:02:08;;;;;;;5.60;0.90;;;;;;;16.56;59.32;102698.31;5021068;28;20065;-74
2021/10/13 11:04:34;;;;;;;5.35;1.15;;;;;;;16.61;60.60;102703.75;5012919;28;20091;-76
2021/10/13 11:07:02;;;;;;;4.85;0.73;;;;;;;16.80;62.65;102707.69;5015879;28;20553;-74
2021/10/13 11:09:27;;;;;;;3.92;0.90;;;;;;;16.74;64.05;102715.50;5014549;28;20022;-75
2021/10/13 11:11:53;;;;;;;5.28;0.77;;;;;;;16.49;63.71;102712.34;5012457;28;20084;-75
2021/10/13 11:14:26;;;;;;;2.65;0.70;;;;;;;16.14;63.11;102718.66;5013327;28;20037;-75
2021/10/13 11:16:56;;;;;;;;;;;;;;;15.80;63.94;102720.50;5011549;28;20072;-74
2021/10/13 11:19:30;;;;;;;5.38;1.00;;;;;;;16.10;65.33;102735.38;5014039;28;19920;-74
2021/10/13 11:22:00;;;;;;;7.85;1.33;;;;;;;16.23;62.02;102717.94;5014481;28;20026;-75
2021/10/13 11:24:25;;;;;;;7.47;0.98;;;;;;;15.95;61.38;102719.97;5012776;28;20077;-75
2021/10/13 11:26:51;;;;;;;2.83;0.95;;;;;;;15.89;62.57;102718.91;5013598;28;20068;-76